Albert J. Ellis Airport

Airport
ICAO code: 
KOAJ
Summary
ICAO Region: 
NAM
Territory: 
Location: 
Jacksonville, North Carolina,
Coordinates: 
Aerial View: 
34° 49' 59.491" N, 77° 36' 10.637" W
Metar
Observation
KOAJ 272056Z 22004KT 10SM CLR 11/M06 A3006 RMK AO2 SLP182 T01061056 55011
Station
Jacksonville, Albert J Ellis Airport
Date/Time
2021-11-27 20:56:00
Wind direction
220°
Wind speed
04 kts
Lowest cloud amount
n/a
Temperature
10.6°C
Dew point
-5.6°C
Humidity
31%
Weather condition
n/a

Description

Albert J. Ellis Airport is a public use airport located in Richlands, Onslow County, North Carolina, 19 km northwest of the central business district of Jacksonville.

Climatology

Humid “subtropical” climate (Köppen climate classification Cfa) - characterized by hot, humid summers and cool winters. Significant amounts of precipitation occur in all seasons in most areas. Winter rainfall (and sometimes snowfall) is associated with large storms that the westerlies steer from west to east. Most summer rainfall occurs during thunderstorms and occasional tropical storms (hurricanes).

Runways

Designator Length Width Surface Rops
5/23 2164 46 ASP Yes/Yes
Airport map: 
Aerial View: 

SKYbrary Partners:

Safety knowledge contributed by: